Yosemite National Park, CA

5:04 AM PDT on October 20, 2014 (GMT -0700)
Columbia Airport | Change Station
CLOSE
Current Station
Airport
Location: Columbia Airport,
Elevation: 2119 ft
Nearby Weather Stations

Elev 2119 ft 38.03 °N, 120.41 °W | Updated 9 minutes ago

Clear
Clear
46 °F
Feels Like 46 °F
N
0
Wind Variable Wind from North

Today
High -- | Low -- °F
--% Chance of Precip.
Yesterday
High -- | Low -- °F
Precip. -- in
7:11 AM 6:14 PM
Waning Crescent, 11% visible
Pressure 29.92 in
Visibility 10.0 miles
Clouds Few 4600 ft
Dew Point 37 °F
Humidity 71%
Rainfall 0.00 in
Snow Depth Not available.
UV 0 out of 12
Pollen 3.50 out of 12
Air Quality Not available.
Flu Activity Sporadic
METAR KO22 201155Z AUTO 00000KT 10SM FEW046 08/03 A2992 RMK AO1

More Conditions Fewer Conditions

Pressure 29.92 in
Visibility 10.0 miles
Clouds Few 4600 ft
Dew Point 37 °F
Humidity 71%
Rainfall 0.00 in
Snow Depth Not available.
UV 0 out of 12
Pollen 3.50 out of 12
Air Quality Not available.
Flu Activity Sporadic
METAR KO22 201155Z AUTO 00000KT 10SM FEW046 08/03 A2992 RMK AO1

More Conditions Fewer Conditions

10-Day Weather Forecast

Almanac

Astronomy

Oct. 20, 2014 Rise Set
Actual Time 7:11 AM PDT 6:14 PM PDT
Civil Twilight 6:45 AM PDT 6:40 PM PDT
Nautical Twilight 6:14 AM PDT 7:11 PM PDT
Astronomical Twilight 5:44 AM PDT 7:41 PM PDT
Moon 4:07 AM PDT 4:36 PM PDT
Length of Visible Light 11h 55m
Length of Day
11h 02m
Waning Crescent, 11% of the Moon is Illuminated
Today
Waning Crescent
Oct 23
New
Oct 30
First Quarter
Nov 6
Full
Nov 14
Last Quarter

Today's Extremes

State Highs State Lows

Community

WunderPhotos

Upload Photos

1,763,345 photos uploaded!

Nearby

Snow Depth

Station Depth Elevation
Leavitt Lake 1 in 9400 ft
Sonora Pass 0 in 8800 ft
Leavitt Meadows 0 in 7200 ft
Summit Meadow 1 in 9122 ft
Poison Flat 0 in 7900 ft

Earthquake Activity

City Distance Mag. Time & Date
Lone Pine, California 125 miles 2.6 5:26 AM PDT
2014-10-19
Dixon Lane-Meadow Creek, California 64 miles 2.5 5:32 PM PDT
2014-10-18
Soledad, California 117 miles 2.6 3:21 PM PDT
2014-10-18
Smith Valley, Nevada 65 miles 2.9 10:59 AM PDT
2014-10-18
Minimum magnitude displayed is 2.5.

Coastal Water Temperatures

Place Temperature
No Stations Reporting

Nearby Weather Stations